Aérodrome :
LOGIN :

S'inscrire | Disclaimer

   EN    FR    IT 

 










Légende :    VFR   VFR Marginal   IFR   IFR Intensif   IFR Très Intensif
Visi : 
Plafond : 
>= 8 km
>= 3000ft
5 à 8 km
1000 à 3000 ft
1500m à 5 km
500 à 1000 ft
800 à 1500m
200 à 500 ft
< 800m
< 200 ft
Symboles :   Orages  Brouillard  Fortes neiges  Fortes précipitations  Vent > 20 kt
SIGMETs :   Divers  Orages  Givrage  Turbulence  Onde Orograph.  Cendres Volcan.






- Altitude de l'aérodrome : 117 ft
- Code IATA : NWI


EGSH - Norwich

DERNIER METAR :
  • 131620Z 27012KT 240V310 9999 FEW024 BKN038 16/11 Q1012

METARs EXPIRÉS :
  • 131550Z 27009KT 9999 FEW018 BKN024 16/12 Q1012
  • 131520Z 25011KT 9999 -RA FEW018 BKN024 16/12 Q1012
  • 131450Z 25012KT 230V290 9999 BKN019 16/12 Q1012
  • 131420Z 25011KT 9999 BKN019 15/11 Q1012 NOSIG
  • 131350Z 25011KT 220V290 9999 -RA SCT019 BKN024 15/12 Q1012 NOSIG
  • 131320Z 25013KT 9999 VCSH SCT021 SCT029 17/12 Q1012 NOSIG
  • 131250Z 27014KT 240V300 9000 VCSH SCT014 BKN026 16/12 Q1012
  • 131220Z 26012KT 220V290 9000 -RADZ BKN014 BKN022 16/12 Q1012 NOSIG
  • 131150Z 26010KT 9000 -RADZ BKN012 BKN016 15/12 Q1012

TAF TAF EGSH
Valide du 13 à 15h jusqu'au 14 à 00h UTC


131353Z 1315/1324 26010KT 9999 SCT014 BKN025
PROB30
TEMPO 1315/1318 7000 -RA BKN014
PROB30
TEMPO 1318/1321 BKN014
ATIS : +44 1603 420 640



MET'MAP, la Météo Aéronautique d'un coup d'oeil ! - Copyright ORBIFLY Décembre 2007 - Disclaimer

ORBIFLY MET'MAP TEAM :

Programmation & Développement : Alexandra Zaïnal
Sur une idée originale de : Baudouin d'Aumeries
Soutien technique & logistique : Manuel Goepfert
Assistance : Marc-Olivier Méhu




SOURCES & CREDITS :

   NOAA